Time;durP1;ratioP1;P1;durP2;ratioP2;P2;SDS_P1;SDS_P2;PMS_P1;PMS_P2;Temp;Humidity;BMP_temperature;BMP_pressure;BME280_temperature;BME280_humidity;BME280_pressure;Samples;Min_cycle;Max_cycle;Signal;HPM_P1;HPM_P2
2020/12/20 08:57:10;;;;;;;18.00;9.82;;;0.30;83.80;;;;;;5088944;27;739596;-66
2020/12/20 08:59:39;;;;;;;18.35;9.93;;;0.40;83.70;;;;;;5059990;28;20041;-68
2020/12/20 09:02:06;;;;;;;35.72;14.75;;;0.50;83.40;;;;;;5061902;28;20212;-68
2020/12/20 09:04:33;;;;;;;49.33;17.50;;;0.70;83.00;;;;;;5059160;28;20108;-66
2020/12/20 09:07:00;;;;;;;19.17;9.85;;;0.60;83.90;;;;;;5059599;28;20037;-65
2020/12/20 09:09:26;;;;;;;20.80;10.32;;;0.60;83.40;;;;;;5068363;28;20039;-66
2020/12/20 09:11:51;;;;;;;17.70;9.25;;;0.70;83.40;;;;;;5075949;28;20037;-66
2020/12/20 09:14:17;;;;;;;18.75;9.32;;;0.60;83.40;;;;;;5061219;28;20097;-66
2020/12/20 09:16:43;;;;;;;14.98;8.77;;;0.80;82.70;;;;;;5060032;28;20336;-66
2020/12/20 09:19:13;;;;;;;15.07;9.43;;;1.00;82.30;;;;;;5073128;28;20041;-66
2020/12/20 09:21:39;;;;;;;14.77;9.10;;;1.20;81.60;;;;;;5079624;28;20083;-65
2020/12/20 09:24:04;;;;;;;16.92;9.27;;;1.20;81.50;;;;;;5079405;28;20037;-65
2020/12/20 09:26:30;;;;;;;15.80;9.32;;;1.30;81.30;;;;;;5078525;28;20037;-66
2020/12/20 09:28:55;;;;;;;17.38;9.23;;;1.00;81.60;;;;;;5061668;28;20067;-66
2020/12/20 09:31:21;;;;;;;14.80;9.23;;;1.20;81.40;;;;;;5059290;28;20347;-67
2020/12/20 09:33:52;;;;;;;15.10;8.77;;;1.10;81.40;;;;;;5059367;28;20056;-65
2020/12/20 09:36:21;;;;;;;14.43;9.20;;;1.30;81.00;;;;;;5066536;28;20378;-66
2020/12/20 09:38:51;;;;;;;16.70;9.70;;;1.70;80.70;;;;;;5078075;28;20036;-66
2020/12/20 09:41:21;;;;;;;14.40;9.07;;;1.80;80.20;;;;;;5081194;28;20025;-65
2020/12/20 09:43:47;;;;;;;15.75;9.07;;;1.90;79.70;;;;;;5070668;28;20213;-64
2020/12/20 09:46:24;;;;;;;18.38;9.93;;;1.90;79.30;;;;;;5057955;28;20320;-65
2020/12/20 09:48:50;;;;;;;14.85;8.68;;;1.70;79.10;;;;;;5059241;28;20060;-66
2020/12/20 09:51:16;;;;;;;16.13;9.02;;;1.60;79.80;;;;;;5057650;28;20052;-65
2020/12/20 09:53:42;;;;;;;15.82;9.40;;;1.90;79.70;;;;;;5058857;28;20037;-64
2020/12/20 09:56:07;;;;;;;13.80;8.82;;;2.20;78.80;;;;;;5060214;28;20053;-68
2020/12/20 09:58:33;;;;;;;13.77;8.27;;;2.20;78.40;;;;;;5059190;28;20186;-66
2020/12/20 10:00:59;;;;;;;14.02;8.55;;;2.50;80.20;;;;;;5044586;28;20029;-67
2020/12/20 10:03:27;;;;;;;12.52;8.25;;;3.10;76.20;;;;;;5037938;28;20049;-67
2020/12/20 10:05:55;;;;;;;13.52;7.95;;;3.00;76.50;;;;;;5039211;28;20034;-67
2020/12/20 10:08:20;;;;;;;12.55;8.25;;;3.00;76.60;;;;;;5009373;28;20032;-67
2020/12/20 10:10:46;;;;;;;16.40;9.50;;;3.00;76.20;;;;;;5025459;28;20039;-67
2020/12/20 10:13:11;;;;;;;15.02;8.82;;;3.00;76.60;;;;;;5025628;28;20325;-68
2020/12/20 10:15:37;;;;;;;14.88;9.45;;;3.00;75.80;;;;;;5035452;28;20041;-67
2020/12/20 10:18:03;;;;;;;13.68;8.43;;;3.10;76.00;;;;;;5027439;28;20100;-68
2020/12/20 10:20:31;;;;;;;15.25;8.85;;;3.20;76.90;;;;;;5045345;28;20068;-67
2020/12/20 10:22:57;;;;;;;13.70;8.85;;;3.20;76.00;;;;;;5047182;28;20350;-69
2020/12/20 10:25:23;;;;;;;13.35;8.80;;;3.10;75.20;;;;;;5011547;28;20037;-67
2020/12/20 10:27:49;;;;;;;14.20;9.18;;;3.10;74.70;;;;;;5043839;28;20057;-68
2020/12/20 10:30:15;;;;;;;15.25;9.63;;;3.20;74.90;;;;;;5045006;28;20045;-67
2020/12/20 10:32:40;;;;;;;14.18;8.90;;;3.30;74.80;;;;;;5044556;28;20088;-67
2020/12/20 10:35:06;;;;;;;15.00;8.90;;;3.30;74.80;;;;;;5046277;28;20056;-67
2020/12/20 10:37:31;;;;;;;13.65;8.75;;;3.40;74.80;;;;;;5044949;28;20225;-67
2020/12/20 10:39:57;;;;;;;13.40;7.88;;;3.40;75.20;;;;;;5043808;28;20288;-67
2020/12/20 10:42:22;;;;;;;12.13;7.47;;;3.40;73.70;;;;;;5043598;28;20029;-67
2020/12/20 10:44:48;;;;;;;13.07;8.60;;;3.40;73.80;;;;;;5044476;28;20025;-67
2020/12/20 10:47:13;;;;;;;13.27;8.63;;;3.40;73.60;;;;;;5046181;28;20033;-68
2020/12/20 10:49:39;;;;;;;14.07;8.73;;;3.30;73.40;;;;;;5044092;28;20262;-67
2020/12/20 10:52:05;;;;;;;14.95;9.35;;;3.30;74.10;;;;;;5044806;28;20037;-68
2020/12/20 10:54:30;;;;;;;16.15;9.48;;;3.30;74.20;;;;;;5044314;28;20036;-68
2020/12/20 10:56:59;;;;;;;15.55;9.65;;;3.40;74.40;;;;;;5044237;28;20041;-69
2020/12/20 10:59:30;;;;;;;15.88;9.73;;;3.40;74.00;;;;;;5010581;28;20081;-69
2020/12/20 11:01:55;;;;;;;14.52;9.43;;;3.50;74.50;;;;;;5046365;28;20093;-70
2020/12/20 11:04:22;;;;;;;14.15;9.13;;;3.50;73.60;;;;;;5026654;28;20339;-70
2020/12/20 11:06:47;;;;;;;14.77;9.55;;;3.40;73.40;;;;;;5026676;28;20352;-70
2020/12/20 11:09:13;;;;;;;15.13;8.82;;;3.40;73.50;;;;;;5026785;28;20038;-71
2020/12/20 11:11:39;;;;;;;13.75;9.35;;;3.40;73.80;;;;;;5043910;28;20209;-72
2020/12/20 11:14:05;;;;;;;13.95;9.43;;;3.50;74.20;;;;;;5045648;28;20033;-72
2020/12/20 11:16:30;;;;;;;12.88;8.43;;;3.50;74.10;;;;;;5043306;28;20037;-70
2020/12/20 11:18:56;;;;;;;14.32;9.30;;;3.70;74.40;;;;;;5041988;28;20041;-68
2020/12/20 11:21:21;;;;;;;14.38;9.18;;;3.60;73.50;;;;;;5026308;28;20281;-67
2020/12/20 11:23:48;;;;;;;14.25;9.68;;;3.60;73.30;;;;;;5042705;28;20060;-68
2020/12/20 11:26:18;;;;;;;13.68;8.77;;;3.50;73.70;;;;;;5028219;28;20060;-68
2020/12/20 11:28:45;;;;;;;13.70;9.68;;;3.60;74.60;;;;;;5026467;28;20037;-68
2020/12/20 11:31:11;;;;;;;15.57;9.77;;;3.70;74.40;;;;;;5026412;28;20033;-68
2020/12/20 11:33:37;;;;;;;13.85;9.18;;;3.80;74.00;;;;;;5009915;28;20041;-68
2020/12/20 11:36:04;;;;;;;14.15;9.38;;;3.80;73.50;;;;;;5025954;28;20056;-68
2020/12/20 11:38:29;;;;;;;14.93;10.02;;;3.80;74.00;;;;;;5026094;28;20041;-68
2020/12/20 11:40:55;;;;;;;15.70;10.20;;;3.80;73.50;;;;;;5027889;28;20149;-69
2020/12/20 11:43:20;;;;;;;14.80;10.15;;;3.80;72.90;;;;;;5042576;28;20041;-68
2020/12/20 11:45:46;;;;;;;17.30;10.60;;;3.80;73.00;;;;;;5043487;28;20316;-68
2020/12/20 11:48:15;;;;;;;16.63;10.63;;;3.70;73.30;;;;;;5041820;28;20045;-68
2020/12/20 11:50:41;;;;;;;17.13;10.90;;;3.70;72.80;;;;;;5042070;28;20030;-68
2020/12/20 11:53:06;;;;;;;18.27;11.85;;;3.70;74.00;;;;;;5027320;28;20309;-69
2020/12/20 11:55:32;;;;;;;17.35;11.75;;;3.70;73.20;;;;;;5025362;28;20057;-70
2020/12/20 11:57:58;;;;;;;18.30;12.23;;;3.70;73.30;;;;;;5042560;28;20068;-70
2020/12/20 12:00:24;;;;;;;17.85;11.95;;;3.60;73.20;;;;;;5043219;28;20044;-70
2020/12/20 12:02:50;;;;;;;16.00;11.07;;;3.70;73.60;;;;;;5043048;28;20033;-70
2020/12/20 12:05:15;;;;;;;16.65;10.75;;;3.70;73.20;;;;;;5044082;28;20044;-69
2020/12/20 12:07:41;;;;;;;16.70;10.77;;;3.80;74.00;;;;;;5026022;28;20030;-69
2020/12/20 12:10:06;;;;;;;14.40;10.18;;;3.80;73.60;;;;;;5042089;28;20102;-69
2020/12/20 12:12:32;;;;;;;15.75;10.40;;;3.70;73.30;;;;;;5042857;28;20103;-70
2020/12/20 12:14:58;;;;;;;15.13;10.27;;;3.80;73.70;;;;;;5025235;28;20083;-70
2020/12/20 12:17:23;;;;;;;15.02;9.48;;;3.70;73.50;;;;;;5044723;28;20037;-70
2020/12/20 12:19:49;;;;;;;14.57;10.68;;;3.60;73.80;;;;;;5042832;28;20098;-70
2020/12/20 12:22:15;;;;;;;16.38;10.75;;;3.60;74.00;;;;;;5042824;28;20037;-70
2020/12/20 12:24:40;;;;;;;16.25;10.65;;;3.60;74.20;;;;;;5042936;28;20034;-70
2020/12/20 12:27:06;;;;;;;14.90;9.55;;;3.60;74.60;;;;;;5041566;28;20080;-69
2020/12/20 12:29:31;;;;;;;14.52;9.85;;;3.70;74.30;;;;;;5042505;28;20038;-70
2020/12/20 12:31:57;;;;;;;14.88;10.02;;;3.70;74.20;;;;;;5043207;28;20029;-70
2020/12/20 12:34:23;;;;;;;15.32;10.10;;;3.80;74.60;;;;;;5042625;28;20033;-70
2020/12/20 12:36:48;;;;;;;13.68;9.73;;;3.70;74.20;;;;;;5041140;28;20090;-70
2020/12/20 12:39:14;;;;;;;16.60;9.43;;;3.70;74.20;;;;;;5042280;28;20080;-70
2020/12/20 12:41:39;;;;;;;14.43;9.68;;;3.60;74.90;;;;;;5042089;28;20033;-70
2020/12/20 12:44:05;;;;;;;15.15;10.20;;;3.50;74.60;;;;;;5044877;28;20261;-70
2020/12/20 12:46:30;;;;;;;15.63;10.27;;;3.40;74.70;;;;;;5041827;28;20229;-70
2020/12/20 12:48:56;;;;;;;14.52;9.80;;;3.30;75.00;;;;;;5041386;28;20038;-70
2020/12/20 12:51:23;;;;;;;14.82;9.63;;;3.50;74.90;;;;;;5042177;28;20332;-70
2020/12/20 12:53:48;;;;;;;14.73;10.00;;;3.50;75.20;;;;;;5041017;28;20037;-70
2020/12/20 12:56:15;;;;;;;15.85;10.35;;;3.40;74.90;;;;;;5042621;28;20360;-70
2020/12/20 12:58:41;;;;;;;18.27;11.40;;;3.50;75.00;;;;;;5041713;28;20057;-70
2020/12/20 13:01:06;;;;;;;17.27;10.82;;;3.50;74.80;;;;;;5024730;28;20033;-70
2020/12/20 13:03:32;;;;;;;15.95;10.77;;;3.60;74.60;;;;;;5040926;28;20067;-70
2020/12/20 13:05:57;;;;;;;19.10;11.75;;;3.70;74.40;;;;;;5041167;28;20092;-71
2020/12/20 13:08:23;;;;;;;15.32;10.32;;;3.70;74.40;;;;;;5043825;28;20331;-70
2020/12/20 13:10:48;;;;;;;15.77;10.02;;;3.60;74.30;;;;;;5040990;28;20037;-70
2020/12/20 13:13:14;;;;;;;17.05;10.32;;;3.70;74.20;;;;;;5040918;28;20034;-70
2020/12/20 13:15:39;;;;;;;18.05;10.63;;;3.80;74.70;;;;;;5040804;28;20145;-69
2020/12/20 13:18:05;;;;;;;15.82;10.35;;;3.70;74.30;;;;;;5041329;28;20026;-70
2020/12/20 13:20:30;;;;;;;15.77;10.25;;;3.70;74.60;;;;;;5042311;28;20021;-70
2020/12/20 13:22:56;;;;;;;16.25;10.13;;;3.70;74.30;;;;;;5043150;28;20043;-70
2020/12/20 13:25:21;;;;;;;16.08;10.27;;;3.70;74.40;;;;;;5041251;28;20088;-70
2020/12/20 13:27:47;;;;;;;14.82;10.00;;;3.60;74.70;;;;;;5041120;28;20225;-70
2020/12/20 13:30:13;;;;;;;15.57;10.38;;;3.60;74.40;;;;;;5040944;28;20267;-70
2020/12/20 13:32:38;;;;;;;17.85;10.35;;;3.60;74.20;;;;;;5022916;28;20033;-68
2020/12/20 13:35:04;;;;;;;17.58;11.48;;;3.50;74.50;;;;;;5042748;28;20250;-68
2020/12/20 13:37:30;;;;;;;15.40;10.30;;;3.70;74.40;;;;;;5042499;28;20213;-69
2020/12/20 13:39:55;;;;;;;16.45;11.10;;;3.80;75.30;;;;;;5042158;28;20049;-69
2020/12/20 13:42:21;;;;;;;17.33;10.85;;;3.90;74.80;;;;;;5042638;28;20205;-69
2020/12/20 13:44:47;;;;;;;18.60;11.10;;;3.80;74.40;;;;;;5044506;28;20034;-68
2020/12/20 13:47:12;;;;;;;16.60;10.88;;;3.70;74.30;;;;;;5047570;28;20213;-71
2020/12/20 13:49:38;;;;;;;16.65;10.85;;;3.60;74.80;;;;;;5045142;28;20041;-71
2020/12/20 13:52:03;;;;;;;16.70;11.20;;;3.60;75.10;;;;;;5043863;28;20206;-68
2020/12/20 13:54:29;;;;;;;17.60;11.35;;;3.70;75.00;;;;;;5045344;28;20029;-69
2020/12/20 13:56:55;;;;;;;16.60;10.23;;;3.80;75.20;;;;;;5045564;28;20053;-69
2020/12/20 13:59:21;;;;;;;15.43;10.10;;;3.90;75.00;;;;;;5047350;28;20026;-70
2020/12/20 14:01:53;;;;;;;15.55;10.48;;;3.80;74.80;;;;;;5045070;28;20321;-69
2020/12/20 14:04:19;;;;;;;15.27;10.60;;;3.90;74.70;;;;;;5044466;28;20256;-69
2020/12/20 14:06:46;;;;;;;14.13;9.88;;;3.80;74.90;;;;;;5044109;28;20037;-70
2020/12/20 14:09:11;;;;;;;16.00;10.07;;;3.70;74.90;;;;;;5043953;28;20033;-69
2020/12/20 14:11:37;;;;;;;14.15;9.52;;;3.70;75.40;;;;;;5043430;28;20245;-70
2020/12/20 14:14:03;;;;;;;15.63;10.07;;;3.80;74.90;;;;;;5045969;28;20068;-71
2020/12/20 14:16:28;;;;;;;17.40;10.52;;;3.80;74.60;;;;;;5044125;28;20092;-71
2020/12/20 14:18:54;;;;;;;14.48;9.50;;;3.90;74.40;;;;;;5045856;28;20080;-72
2020/12/20 14:21:20;;;;;;;14.40;9.65;;;3.90;74.90;;;;;;5028395;28;20055;-70
2020/12/20 14:23:46;;;;;;;16.10;10.10;;;4.00;74.70;;;;;;5024957;28;20101;-70
2020/12/20 14:26:15;;;;;;;15.20;10.48;;;3.90;74.50;;;;;;5027106;28;20129;-72
2020/12/20 14:28:41;;;;;;;15.25;10.07;;;3.90;74.80;;;;;;5043555;28;20030;-71
2020/12/20 14:31:11;;;;;;;16.67;10.23;;;3.80;75.30;;;;;;5045251;28;20044;-73
2020/12/20 14:33:40;;;;;;;18.02;11.18;;;3.80;76.10;;;;;;5043818;28;20045;-73
2020/12/20 14:36:10;;;;;;;16.05;10.80;;;3.80;76.20;;;;;;5041321;28;20072;-72
2020/12/20 14:38:37;;;;;;;15.52;10.07;;;3.90;75.30;;;;;;5043098;28;20021;-70
2020/12/20 14:41:05;;;;;;;17.75;11.05;;;3.80;75.30;;;;;;5045487;28;20030;-71
2020/12/20 14:43:31;;;;;;;17.45;11.10;;;3.90;74.90;;;;;;5044328;28;20037;-71
2020/12/20 14:45:57;;;;;;;18.23;11.27;;;3.90;75.20;;;;;;5044545;28;20041;-71
2020/12/20 14:48:23;;;;;;;17.00;10.93;;;3.90;74.80;;;;;;5043837;28;20097;-70
2020/12/20 14:50:49;;;;;;;18.00;11.20;;;3.90;74.40;;;;;;5009927;28;20097;-71
2020/12/20 14:53:14;;;;;;;17.50;11.00;;;3.90;74.80;;;;;;5045011;28;20029;-72
2020/12/20 14:55:40;;;;;;;16.75;11.05;;;3.90;75.00;;;;;;5042098;28;20064;-72
2020/12/20 14:58:06;;;;;;;17.30;11.10;;;3.90;74.60;;;;;;5042462;28;20275;-72
2020/12/20 15:00:31;;;;;;;15.82;10.55;;;3.80;74.90;;;;;;5043180;28;20072;-67
2020/12/20 15:02:57;;;;;;;20.25;11.68;;;3.90;75.10;;;;;;5043133;28;20025;-71
2020/12/20 15:05:22;;;;;;;17.58;11.07;;;3.90;75.00;;;;;;5046303;28;20087;-71
2020/12/20 15:07:48;;;;;;;17.02;11.27;;;3.80;75.20;;;;;;5044130;28;20037;-70
2020/12/20 15:10:15;;;;;;;17.05;12.02;;;3.70;75.30;;;;;;5043077;28;20038;-70
2020/12/20 15:12:43;;;;;;;21.55;13.50;;;3.70;75.30;;;;;;5042831;28;20103;-69
2020/12/20 15:15:09;;;;;;;20.50;12.85;;;3.60;75.40;;;;;;5042774;28;20221;-67
2020/12/20 15:17:35;;;;;;;18.30;11.48;;;3.60;75.50;;;;;;5042518;28;20034;-67
2020/12/20 15:20:00;;;;;;;16.42;10.32;;;3.70;75.30;;;;;;5045084;28;20029;-67
2020/12/20 15:22:26;;;;;;;15.93;10.50;;;3.70;75.30;;;;;;5044134;28;20060;-67
2020/12/20 15:24:52;;;;;;;17.42;11.35;;;3.70;75.40;;;;;;5044178;28;20071;-66
2020/12/20 15:27:18;;;;;;;16.90;10.88;;;3.80;75.30;;;;;;5043711;28;20059;-67
2020/12/20 15:29:43;;;;;;;16.80;11.10;;;3.80;75.20;;;;;;5042636;28;20021;-66
2020/12/20 15:32:09;;;;;;;19.55;12.45;;;3.90;75.10;;;;;;5044611;28;20028;-67
2020/12/20 15:34:34;;;;;;;21.25;12.30;;;3.70;75.70;;;;;;5044171;28;20037;-66
2020/12/20 15:37:01;;;;;;;19.27;12.40;;;3.70;75.50;;;;;;5041198;28;20221;-66
2020/12/20 15:39:26;;;;;;;19.55;12.20;;;3.80;75.10;;;;;;5043361;28;20025;-65
2020/12/20 15:41:52;;;;;;;19.13;12.02;;;3.70;75.30;;;;;;5043577;28;20033;-66
2020/12/20 15:44:18;;;;;;;18.02;12.05;;;3.60;75.70;;;;;;5045038;28;20033;-66
2020/12/20 15:46:44;;;;;;;20.98;12.77;;;3.80;75.60;;;;;;5043852;28;20080;-66
2020/12/20 15:49:09;;;;;;;21.63;12.52;;;3.80;75.20;;;;;;5041019;28;20356;-67
2020/12/20 15:51:35;;;;;;;19.80;12.63;;;3.90;75.20;;;;;;5043104;28;20030;-67
2020/12/20 15:54:01;;;;;;;22.63;13.65;;;3.80;75.30;;;;;;5043253;28;20217;-66
2020/12/20 15:56:26;;;;;;;21.95;13.52;;;3.90;75.30;;;;;;5044553;28;20050;-66
2020/12/20 15:58:52;;;;;;;21.13;12.73;;;3.90;75.10;;;;;;5043795;28;20044;-66
2020/12/20 16:01:23;;;;;;;25.65;15.10;;;3.90;75.20;;;;;;5043094;28;20229;-67
2020/12/20 16:03:48;;;;;;;;;;;3.80;75.10;;;;;;5043636;28;20283;-67
2020/12/20 16:06:14;;;;;;;25.90;14.85;;;3.80;75.30;;;;;;5042948;28;19905;-66
2020/12/20 16:08:40;;;;;;;22.60;13.90;;;3.40;76.30;;;;;;5043338;28;20092;-65
2020/12/20 16:11:05;;;;;;;23.02;14.57;;;3.50;76.20;;;;;;5043527;28;20217;-66
2020/12/20 16:13:31;;;;;;;21.38;13.07;;;3.60;76.20;;;;;;5025823;28;20040;-67
2020/12/20 16:15:57;;;;;;;20.20;13.25;;;3.70;76.10;;;;;;5043248;28;20095;-65
2020/12/20 16:18:25;;;;;;;23.15;13.80;;;3.70;76.00;;;;;;5043142;28;20029;-67
2020/12/20 16:20:52;;;;;;;22.88;13.57;;;3.80;75.30;;;;;;5041856;28;20145;-66
2020/12/20 16:23:18;;;;;;;24.73;15.32;;;3.90;75.50;;;;;;5043752;28;20037;-67
2020/12/20 16:25:44;;;;;;;23.02;13.88;;;3.80;75.40;;;;;;5042201;28;20155;-67
2020/12/20 16:28:09;;;;;;;21.40;13.45;;;3.90;75.50;;;;;;5043226;28;20041;-67
2020/12/20 16:30:35;;;;;;;23.33;14.88;;;3.90;75.30;;;;;;5042979;28;20033;-67
2020/12/20 16:33:01;;;;;;;25.75;15.45;;;3.90;74.80;;;;;;5043166;28;20197;-68
2020/12/20 16:35:27;;;;;;;23.63;14.35;;;3.90;75.30;;;;;;5043703;28;20423;-67
2020/12/20 16:37:53;;;;;;;23.10;14.85;;;3.70;75.40;;;;;;5040657;28;20037;-67
2020/12/20 16:40:18;;;;;;;22.13;13.45;;;3.80;75.50;;;;;;5042908;28;20079;-69
2020/12/20 16:42:44;;;;;;;23.33;14.80;;;3.80;75.40;;;;;;5042966;28;20317;-67
2020/12/20 16:45:09;;;;;;;22.77;14.13;;;3.80;75.10;;;;;;5041182;28;20033;-66
2020/12/20 16:47:35;;;;;;;24.02;14.20;;;3.90;75.10;;;;;;5041331;28;20232;-67
2020/12/20 16:50:03;;;;;;;24.40;15.07;;;3.90;74.90;;;;;;5026886;28;20328;-67
2020/12/20 16:52:28;;;;;;;22.20;13.75;;;3.80;74.90;;;;;;5041741;28;20049;-69
2020/12/20 16:54:54;;;;;;;21.48;13.00;;;3.80;74.90;;;;;;5039970;28;20033;-66
2020/12/20 16:57:19;;;;;;;23.88;14.20;;;3.80;74.90;;;;;;5042242;28;20340;-67
2020/12/20 16:59:45;;;;;;;23.42;14.25;;;3.90;74.80;;;;;;5039554;28;20233;-68
2020/12/20 17:02:11;;;;;;;21.20;12.88;;;3.80;75.00;;;;;;5042969;28;20030;-67
2020/12/20 17:04:36;;;;;;;21.25;13.23;;;3.90;74.80;;;;;;5042403;28;20040;-66
2020/12/20 17:07:02;;;;;;;20.75;13.40;;;3.80;74.90;;;;;;5042292;28;20100;-66
2020/12/20 17:09:27;;;;;;;22.27;13.55;;;3.80;74.80;;;;;;5042166;28;20033;-67
2020/12/20 17:11:53;;;;;;;26.27;14.00;;;3.70;75.10;;;;;;5042369;28;20038;-67
2020/12/20 17:14:19;;;;;;;27.38;14.85;;;3.80;74.90;;;;;;5043840;28;20064;-67
2020/12/20 17:16:44;;;;;;;25.27;14.90;;;3.80;74.80;;;;;;5042390;28;20112;-70
2020/12/20 17:19:10;;;;;;;27.40;15.00;;;3.60;75.10;;;;;;5046134;28;20041;-69
2020/12/20 17:21:35;;;;;;;25.35;14.23;;;3.60;75.20;;;;;;5046301;28;20270;-69
2020/12/20 17:24:01;;;;;;;25.65;14.50;;;3.60;75.60;;;;;;5046256;28;20336;-69
2020/12/20 17:26:27;;;;;;;22.17;13.65;;;3.60;75.70;;;;;;5047862;28;20053;-69
2020/12/20 17:28:52;;;;;;;25.90;14.02;;;3.70;75.40;;;;;;5045833;28;20034;-69
2020/12/20 17:31:19;;;;;;;22.55;13.98;;;3.80;75.20;;;;;;5045822;28;20064;-69
2020/12/20 17:33:45;;;;;;;24.38;14.40;;;3.70;75.00;;;;;;5046030;28;20037;-68
2020/12/20 17:36:14;;;;;;;25.05;14.18;;;3.70;75.20;;;;;;5044772;28;20241;-68
2020/12/20 17:38:44;;;;;;;27.35;15.20;;;3.70;75.30;;;;;;5043860;28;20224;-68
2020/12/20 17:41:10;;;;;;;25.50;14.50;;;3.70;75.50;;;;;;5047578;28;20124;-68
2020/12/20 17:43:35;;;;;;;31.10;14.63;;;3.80;75.60;;;;;;5046160;28;20336;-68
2020/12/20 17:46:01;;;;;;;25.90;14.88;;;3.70;75.70;;;;;;5045019;28;20037;-69
2020/12/20 17:48:27;;;;;;;31.65;14.60;;;3.80;75.40;;;;;;5045790;28;20053;-68
2020/12/20 17:50:52;;;;;;;25.38;14.50;;;3.80;75.30;;;;;;5046090;28;20116;-68
2020/12/20 17:53:18;;;;;;;32.58;15.68;;;3.90;75.30;;;;;;5046140;28;20033;-66
2020/12/20 17:55:43;;;;;;;26.42;15.27;;;3.80;75.50;;;;;;5045585;28;20301;-67
2020/12/20 17:58:09;;;;;;;23.95;14.20;;;3.80;75.70;;;;;;5045591;28;20057;-65
2020/12/20 18:00:35;;;;;;;22.50;13.18;;;3.90;75.70;;;;;;5045628;28;20036;-65
2020/12/20 18:03:00;;;;;;;25.63;14.32;;;3.90;75.00;;;;;;5045357;28;20034;-65
2020/12/20 18:05:26;;;;;;;26.85;14.27;;;3.80;75.10;;;;;;5046218;28;20076;-66
2020/12/20 18:07:51;;;;;;;23.83;13.85;;;3.80;75.10;;;;;;5045342;28;20237;-67
2020/12/20 18:10:17;;;;;;;31.17;14.20;;;3.90;75.20;;;;;;5027873;28;20379;-67
2020/12/20 18:12:43;;;;;;;24.33;14.13;;;3.80;75.60;;;;;;5044333;28;20247;-68
2020/12/20 18:15:08;;;;;;;28.35;13.88;;;3.80;75.40;;;;;;5043910;28;20038;-67
2020/12/20 18:17:34;;;;;;;65.47;14.43;;;3.60;75.90;;;;;;5045528;28;20029;-67
2020/12/20 18:19:59;;;;;;;31.55;14.93;;;3.60;76.30;;;;;;5029412;28;20021;-65
2020/12/20 18:22:25;;;;;;;26.90;13.10;;;3.60;76.00;;;;;;5045221;28;20053;-65
2020/12/20 18:24:52;;;;;;;21.88;12.23;;;3.80;76.00;;;;;;5044659;28;20038;-70
2020/12/20 18:27:18;;;;;;;20.20;11.88;;;3.90;75.10;;;;;;5042621;28;20287;-69
2020/12/20 18:29:43;;;;;;;21.83;12.27;;;3.90;74.90;;;;;;5043976;28;20060;-71
2020/12/20 18:32:09;;;;;;;25.73;13.50;;;3.90;74.70;;;;;;5046888;28;20030;-71
2020/12/20 18:34:34;;;;;;;23.50;13.63;;;3.90;75.10;;;;;;5040989;28;20063;-70
2020/12/20 18:37:00;;;;;;;28.50;13.27;;;3.80;75.80;;;;;;5044712;28;20262;-70
2020/12/20 18:39:25;;;;;;;48.22;14.48;;;3.80;75.60;;;;;;5043873;28;20055;-70
2020/12/20 18:41:51;;;;;;;30.02;14.40;;;3.80;76.00;;;;;;5043951;28;20029;-70
2020/12/20 18:44:17;;;;;;;32.22;13.95;;;3.90;76.20;;;;;;5046819;28;20123;-71
2020/12/20 18:46:43;;;;;;;33.17;14.60;;;3.60;76.10;;;;;;5045032;28;20037;-71
2020/12/20 18:49:09;;;;;;;27.45;13.52;;;3.50;76.30;;;;;;5027333;28;20037;-71
2020/12/20 18:51:35;;;;;;;35.47;13.65;;;3.60;76.20;;;;;;5043769;28;20084;-71
2020/12/20 18:54:03;;;;;;;22.98;12.25;;;3.60;76.10;;;;;;5043381;28;20037;-71
2020/12/20 18:56:29;;;;;;;20.63;11.85;;;3.80;75.80;;;;;;5044774;28;20333;-71
2020/12/20 18:58:54;;;;;;;19.55;11.30;;;3.70;75.70;;;;;;5043815;28;20040;-67
2020/12/20 19:01:26;;;;;;;18.50;11.13;;;3.70;75.30;;;;;;5044941;28;20086;-67
2020/12/20 19:03:52;;;;;;;28.40;11.40;;;3.60;75.00;;;;;;5043539;28;20115;-67
2020/12/20 19:06:17;;;;;;;35.28;11.77;;;3.70;74.70;;;;;;5044754;28;20029;-68
2020/12/20 19:08:43;;;;;;;19.70;12.00;;;3.70;75.20;;;;;;5043968;28;20033;-66
2020/12/20 19:11:08;;;;;;;30.13;12.77;;;3.60;75.00;;;;;;5045878;28;20025;-67
2020/12/20 19:13:34;;;;;;;33.78;12.15;;;3.60;75.40;;;;;;5044263;28;20048;-67
2020/12/20 19:16:00;;;;;;;40.63;13.10;;;3.60;75.70;;;;;;5042946;28;20045;-69
2020/12/20 19:18:26;;;;;;;22.77;12.35;;;3.40;76.30;;;;;;5044252;28;20049;-67
2020/12/20 19:20:51;;;;;;;27.80;12.73;;;3.50;76.60;;;;;;5044242;28;20037;-67
2020/12/20 19:23:17;;;;;;;29.42;11.82;;;3.50;76.60;;;;;;5045082;28;20092;-67
2020/12/20 19:25:47;;;;;;;26.27;11.70;;;3.50;76.00;;;;;;5043929;28;20256;-67
2020/12/20 19:28:13;;;;;;;25.98;11.77;;;3.60;75.50;;;;;;5041853;28;20151;-67
2020/12/20 19:30:38;;;;;;;28.35;12.55;;;3.60;75.40;;;;;;5043206;28;20041;-67
2020/12/20 19:33:04;;;;;;;23.85;12.32;;;3.40;75.60;;;;;;5043458;28;20033;-67
2020/12/20 19:35:29;;;;;;;19.05;11.85;;;3.40;76.00;;;;;;5044798;28;20037;-66
2020/12/20 19:37:55;;;;;;;23.15;11.90;;;3.40;76.00;;;;;;5042545;28;20037;-66
2020/12/20 19:40:21;;;;;;;18.40;10.90;;;3.50;75.20;;;;;;5041599;28;20057;-66
2020/12/20 19:42:46;;;;;;;23.25;11.95;;;3.50;75.30;;;;;;5043533;28;20040;-66
2020/12/20 19:45:12;;;;;;;18.50;12.00;;;3.50;74.90;;;;;;5043287;28;20026;-66
2020/12/20 19:47:38;;;;;;;15.25;10.27;;;3.60;74.60;;;;;;5043225;28;20040;-68
2020/12/20 19:50:04;;;;;;;21.13;10.55;;;3.50;74.00;;;;;;5027928;28;20030;-67
2020/12/20 19:52:36;;;;;;;15.88;10.32;;;3.40;73.80;;;;;;5025368;28;20043;-68
2020/12/20 19:55:03;;;;;;;16.40;10.65;;;3.40;73.80;;;;;;5042978;28;20057;-67
2020/12/20 19:57:28;;;;;;;15.60;10.27;;;3.40;74.10;;;;;;5042112;28;20041;-67
2020/12/20 19:59:54;;;;;;;16.90;10.45;;;3.40;74.30;;;;;;5042921;28;20024;-67
2020/12/20 20:02:20;;;;;;;17.27;10.85;;;3.40;74.10;;;;;;5044309;28;20036;-68
2020/12/20 20:04:45;;;;;;;16.65;10.68;;;3.40;74.00;;;;;;5025935;28;20034;-67
2020/12/20 20:07:11;;;;;;;22.50;11.65;;;3.40;74.20;;;;;;5041332;28;20033;-67
2020/12/20 20:09:36;;;;;;;22.27;11.60;;;3.30;74.00;;;;;;5042161;28;20041;-67
2020/12/20 20:12:02;;;;;;;26.88;12.02;;;3.30;74.60;;;;;;5042890;28;20033;-68
2020/12/20 20:14:28;;;;;;;19.42;11.60;;;3.20;75.10;;;;;;5027481;28;20052;-68
2020/12/20 20:16:53;;;;;;;21.50;11.88;;;3.20;74.80;;;;;;5041645;28;20329;-67
2020/12/20 20:19:19;;;;;;;18.30;11.60;;;3.20;75.30;;;;;;5043339;28;20036;-67
2020/12/20 20:21:45;;;;;;;18.95;11.80;;;3.30;75.10;;;;;;5041703;28;20213;-67
2020/12/20 20:24:10;;;;;;;25.10;12.52;;;3.20;75.40;;;;;;5042978;28;20225;-67
2020/12/20 20:26:36;;;;;;;19.65;12.05;;;3.20;75.20;;;;;;5041521;28;20096;-67
2020/12/20 20:29:02;;;;;;;25.55;11.57;;;3.00;75.70;;;;;;5027247;28;20030;-68
2020/12/20 20:31:28;;;;;;;20.15;12.07;;;3.00;75.80;;;;;;5037254;28;20087;-68
2020/12/20 20:33:58;;;;;;;20.50;12.23;;;3.10;75.60;;;;;;5042700;28;20104;-67
2020/12/20 20:36:31;;;;;;;25.03;13.13;;;3.20;75.40;;;;;;5024844;28;20060;-67
2020/12/20 20:38:57;;;;;;;26.05;12.02;;;3.20;75.20;;;;;;5040615;28;20040;-68
2020/12/20 20:41:22;;;;;;;22.27;12.40;;;3.10;75.10;;;;;;5043799;28;20092;-67
2020/12/20 20:43:48;;;;;;;24.42;11.73;;;3.00;75.30;;;;;;5041512;28;20029;-68
2020/12/20 20:46:17;;;;;;;27.50;12.48;;;3.00;75.20;;;;;;5042661;28;20033;-68
2020/12/20 20:48:46;;;;;;;25.67;12.18;;;3.00;75.40;;;;;;5025430;28;20227;-67
2020/12/20 20:51:19;;;;;;;23.35;13.10;;;3.00;75.40;;;;;;5024295;28;20026;-68
2020/12/20 20:53:45;;;;;;;23.27;12.30;;;2.90;75.60;;;;;;5042697;28;20032;-68
2020/12/20 20:56:18;;;;;;;25.75;12.65;;;3.10;75.60;;;;;;5026314;28;20049;-68
2020/12/20 20:58:44;;;;;;;28.00;13.02;;;3.10;75.30;;;;;;5008980;28;20040;-68
2020/12/20 21:01:09;;;;;;;20.33;12.20;;;3.10;75.30;;;;;;5041157;28;20033;-67
2020/12/20 21:03:35;;;;;;;25.42;13.00;;;3.00;75.60;;;;;;5041227;28;20033;-68
2020/12/20 21:06:00;;;;;;;22.02;13.65;;;3.20;75.30;;;;;;5024998;28;20026;-68
2020/12/20 21:08:26;;;;;;;25.15;13.98;;;3.20;75.90;;;;;;5044304;28;20021;-67
2020/12/20 21:10:55;;;;;;;25.92;13.90;;;3.20;75.80;;;;;;5024844;28;20202;-68
2020/12/20 21:13:24;;;;;;;26.80;13.48;;;3.30;75.70;;;;;;5042321;28;20034;-68
2020/12/20 21:15:51;;;;;;;25.80;14.90;;;3.20;75.70;;;;;;5040026;28;20045;-67
2020/12/20 21:18:21;;;;;;;26.02;14.10;;;3.30;75.40;;;;;;5024506;28;20372;-69
2020/12/20 21:20:47;;;;;;;27.90;14.75;;;3.20;75.40;;;;;;5042638;28;20029;-66
2020/12/20 21:23:12;;;;;;;25.80;14.35;;;3.20;75.30;;;;;;5042842;28;20052;-67
2020/12/20 21:25:38;;;;;;;27.23;14.70;;;3.30;75.60;;;;;;5042352;28;20033;-68
2020/12/20 21:28:03;;;;;;;26.23;14.88;;;3.30;75.50;;;;;;5041367;28;20229;-67
2020/12/20 21:30:29;;;;;;;26.10;14.73;;;3.20;75.50;;;;;;5021398;28;20038;-66